Date,TemperatureHighF,TemperatureAvgF,TemperatureLowF,DewpointHighF,DewpointAvgF,DewpointLowF,HumidityHigh,HumidityAvg,HumidityLow,PressureMaxIn,PressureMinIn,WindSpeedMaxMPH,WindSpeedAvgMPH,GustSpeedMaxMPH,PrecipitationSumIn
2012-12-5,45,42,38,39,38,35,98,86,77,0.00,40.00,2,1,8,0.01
2012-12-6,41,38,35,41,36,-100,100,97,96,0.00,40.00,3,1,11,0.31
2012-12-7,41,38,36,39,36,30,100,91,76,0.00,40.00,2,1,9,0.20
2012-12-8,41,36,33,37,33,31,100,91,71,0.00,40.00,2,0,5,0.02
2012-12-9,37,36,34,37,36,34,100,98,88,0.00,40.00,2,0,7,0.07
2012-12-10,42,39,35,41,39,35,100,98,93,0.00,40.00,2,1,7,0.01
2012-12-11,42,40,39,41,39,37,100,95,88,0.00,40.00,3,1,14,0.07
2012-12-12,42,40,39,40,37,36,100,90,80,0.00,40.00,3,2,9,0.02
2012-12-13,42,39,38,39,38,36,100,94,82,0.00,40.00,4,1,11,0.38
2012-12-14,40,36,31,39,35,31,100,94,77,0.00,40.00,3,1,9,0.44
2012-12-15,39,37,34,37,34,31,100,91,73,0.00,40.00,6,3,22,0.21
2012-12-16,41,38,36,39,36,34,100,92,85,0.00,40.00,6,3,16,0.33
2012-12-17,42,36,33,40,35,31,100,94,81,0.00,40.00,4,2,16,0.52
2012-12-18,38,34,31,35,33,31,100,96,80,0.00,40.00,4,1,12,0.11
2012-12-19,40,38,36,37,34,32,94,87,81,0.00,40.00,7,5,20,0.17
2012-12-20,40,38,35,40,38,35,100,97,88,0.00,40.00,4,2,12,0.35
2012-12-21,43,38,34,37,34,30,100,86,70,0.00,40.00,4,2,13,0.03
2012-12-22,44,39,35,39,37,35,100,91,77,0.00,40.00,4,2,16,0.01
2012-12-23,44,41,38,38,37,35,98,83,71,0.00,40.00,5,3,18,0.01
2012-12-24,39,37,36,39,37,36,100,100,99,0.00,40.00,1,0,6,0.21
2012-12-25,38,36,34,37,35,32,100,95,79,0.00,40.00,3,1,11,0.63
2012-12-26,40,38,35,39,37,35,100,97,87,0.00,40.00,1,1,6,0.06
2012-12-27,40,37,35,40,37,35,100,100,100,0.00,40.00,1,0,5,0.09
2012-12-28,41,38,35,38,37,35,100,97,84,0.00,40.00,1,0,5,0.03
2012-12-29,37,36,35,37,36,35,100,100,100,0.00,40.00,1,0,4,0.14
2012-12-30,35,32,30,35,32,30,100,100,100,0.00,40.00,1,0,3,0.01
2012-12-31,33,32,30,33,32,30,100,100,100,0.00,40.00,1,0,4,0.13
2013-1-1,34,32,29,34,32,29,100,98,86,0.00,40.00,2,1,7,0.01